Time;durP1;ratioP1;P1;durP2;ratioP2;P2;SDS_P1;SDS_P2;PMS_P1;PMS_P2;Temp;Humidity;BMP_temperature;BMP_pressure;BME280_temperature;BME280_humidity;BME280_pressure;Samples;Min_cycle;Max_cycle;Signal;HPM_P1;HPM_P2
2021/07/24 00:00:17;;;;;;;;;;;24.70;99.90;;;;;;1872169;75;20195;-90
2021/07/24 00:02:52;;;;;;;;;;;24.70;99.90;;;;;;1836752;76;20132;-89
2021/07/24 00:05:19;;;;;;;;;;;24.70;99.90;;;;;;1874660;75;20191;-90
2021/07/24 00:07:49;;;;;;;;;;;24.70;99.90;;;;;;1867997;75;20334;-90
2021/07/24 00:10:21;;;;;;;;;;;24.70;99.90;;;;;;1865671;76;20217;-90
2021/07/24 00:12:50;;;;;;;;;;;24.70;99.90;;;;;;1868069;75;20316;-91
2021/07/24 00:15:20;;;;;;;;;;;24.70;99.90;;;;;;1847397;76;20172;-90
2021/07/24 00:17:50;;;;;;;;;;;24.70;99.90;;;;;;1861099;76;20213;-89
2021/07/24 00:20:20;;;;;;;;;;;24.70;99.90;;;;;;1877363;76;20168;-89
2021/07/24 00:22:50;;;;;;;;;;;24.70;99.90;;;;;;1884606;75;20172;-89
2021/07/24 00:25:20;;;;;;;;;;;24.70;99.90;;;;;;1863048;76;20203;-90
2021/07/24 00:28:02;;;;;;;;;;;24.80;99.90;;;;;;1939683;73;20116;-89
2021/07/24 00:30:35;;;;;;;;;;;24.80;99.90;;;;;;1936717;73;20414;-90
2021/07/24 00:33:05;;;;;;;;;;;24.80;99.90;;;;;;1932069;73;20185;-91
2021/07/24 00:35:38;;;;;;;;;;;24.80;99.90;;;;;;1931299;73;20271;-90
2021/07/24 00:38:07;;;;;;;;;;;24.80;99.90;;;;;;1938930;73;20240;-89
2021/07/24 00:40:38;;;;;;;;;;;24.80;99.90;;;;;;1932329;73;20214;-89
2021/07/24 00:43:08;;;;;;;;;;;24.80;99.90;;;;;;1929732;73;20204;-89
2021/07/24 00:45:39;;;;;;;;;;;24.80;99.90;;;;;;1930775;73;20187;-90
2021/07/24 00:48:08;;;;;;;;;;;24.80;99.90;;;;;;1932735;73;20316;-88
2021/07/24 00:50:48;;;;;;;;;;;24.80;99.90;;;;;;1937037;73;20149;-90
2021/07/24 00:53:33;;;;;;;;;;;24.80;99.90;;;;;;1934407;73;20189;-89
2021/07/24 00:55:50;;;;;;;;;;;24.80;99.90;;;;;;1932599;73;20302;-86
2021/07/24 00:58:21;;;;;;;;;;;24.80;99.90;;;;;;1935940;73;20218;-87
2021/07/24 01:00:54;;;;;;;;;;;24.90;99.90;;;;;;1930707;73;20585;-89
2021/07/24 01:03:24;;;;;;;;;;;24.90;99.90;;;;;;1932885;73;20242;-92
2021/07/24 01:05:55;;;;;;;;;;;24.90;99.90;;;;;;1941659;73;20213;-90
2021/07/24 01:08:25;;;;;;;;;;;24.90;99.90;;;;;;1933846;73;20219;-90
2021/07/24 01:10:55;;;;;;;;;;;24.90;99.90;;;;;;1935334;73;20153;-86
2021/07/24 01:13:25;;;;;;;;;;;24.90;99.90;;;;;;1932444;73;20155;-90
2021/07/24 01:15:55;;;;;;;;;;;24.90;99.90;;;;;;1934453;73;20444;-89
2021/07/24 01:18:25;;;;;;;;;;;24.90;99.90;;;;;;1931099;73;20200;-90
2021/07/24 01:20:55;;;;;;;;;;;24.90;99.90;;;;;;1929313;73;20201;-90
2021/07/24 01:23:25;;;;;;;;;;;24.80;99.90;;;;;;1888575;75;20186;-89
2021/07/24 01:25:56;;;;;;;;;;;24.80;99.90;;;;;;1932959;73;20169;-90
2021/07/24 01:28:26;;;;;;;;;;;24.80;99.90;;;;;;1928335;73;20132;-89
2021/07/24 01:31:01;;;;;;;;;;;24.80;99.90;;;;;;1929038;73;20474;-89
2021/07/24 01:33:27;;;;;;;;;;;24.80;99.90;;;;;;1935368;73;20723;-88
2021/07/24 01:36:04;;;;;;;;;;;24.80;99.90;;;;;;1926429;73;20161;-90
2021/07/24 01:38:34;;;;;;;;;;;24.80;99.90;;;;;;1928066;73;20205;-88
2021/07/24 01:41:05;;;;;;;;;;;24.80;99.90;;;;;;1928544;73;20170;-89
2021/07/24 01:43:46;;;;;;;;;;;24.80;99.90;;;;;;1927688;73;20201;-89
2021/07/24 01:46:16;;;;;;;;;;;24.80;99.90;;;;;;1944633;73;20557;-89
2021/07/24 01:48:54;;;;;;;;;;;24.80;99.90;;;;;;1929549;73;20228;-89
2021/07/24 01:54:13;;;;;;;;;;;24.80;99.90;;;;;;1869961;75;20205;-88
2021/07/24 01:56:56;;;;;;;;;;;24.80;99.90;;;;;;1864346;76;20171;-88
2021/07/24 01:59:58;;;;;;;;;;;24.80;99.90;;;;;;1793757;79;20205;-88
2021/07/24 02:02:29;;;;;;;;;;;24.80;99.90;;;;;;1808011;79;20219;-89
2021/07/24 02:04:59;;;;;;;;;;;24.80;99.90;;;;;;1780400;79;20212;-87
2021/07/24 02:07:30;;;;;;;;;;;24.80;99.90;;;;;;1765734;81;20151;-89
2021/07/24 02:10:06;;;;;;;;;;;24.80;99.90;;;;;;1810265;78;20224;-88
2021/07/24 02:12:43;;;;;;;;;;;24.80;99.90;;;;;;1811783;79;20204;-89
2021/07/24 02:15:12;;;;;;;;;;;24.80;99.90;;;;;;1809705;79;20174;-89
2021/07/24 02:17:43;;;;;;;;;;;24.80;99.90;;;;;;1811197;79;20259;-88
2021/07/24 02:20:17;;;;;;;;;;;24.80;99.90;;;;;;1813995;78;20284;-87
2021/07/24 02:22:46;;;;;;;;;;;24.80;99.90;;;;;;1806636;78;20724;-87
2021/07/24 02:25:16;;;;;;;;;;;24.80;99.90;;;;;;1806625;78;20613;-85
2021/07/24 02:27:46;;;;;;;;;;;24.90;99.90;;;;;;1766639;81;20558;-87
2021/07/24 02:30:17;;;;;;;;;;;24.90;99.90;;;;;;1763110;81;20314;-88
2021/07/24 02:32:48;;;;;;;;;;;24.90;99.90;;;;;;1820399;78;20248;-89
2021/07/24 02:35:21;;;;;;;;;;;24.90;99.90;;;;;;1829946;73;20155;-88
2021/07/24 02:37:52;;;;;;;;;;;24.90;99.90;;;;;;1933702;73;20213;-89
2021/07/24 02:40:22;;;;;;;;;;;24.90;99.90;;;;;;1942838;73;20177;-89
2021/07/24 02:42:52;;;;;;;;;;;24.90;99.90;;;;;;1927769;73;20197;-92
2021/07/24 02:45:22;;;;;;;;;;;24.90;99.90;;;;;;1940229;73;20216;-89
2021/07/24 02:47:52;;;;;;;;;;;24.90;99.90;;;;;;1932779;73;20198;-88
2021/07/24 02:50:26;;;;;;;;;;;24.80;99.90;;;;;;1936542;73;20202;-87
2021/07/24 02:52:57;;;;;;;;;;;24.80;99.90;;;;;;1929306;73;20130;-88
2021/07/24 02:55:27;;;;;;;;;;;24.80;99.90;;;;;;1940018;73;20223;-87
2021/07/24 02:57:56;;;;;;;;;;;24.80;99.90;;;;;;1942954;73;20198;-88
2021/07/24 03:00:26;;;;;;;;;;;24.80;99.90;;;;;;1940963;73;20223;-87
2021/07/24 03:02:56;;;;;;;;;;;24.80;99.90;;;;;;1918601;73;20206;-86
2021/07/24 03:05:25;;;;;;;;;;;24.80;99.90;;;;;;1910356;74;20157;-85
2021/07/24 03:07:58;;;;;;;;;;;24.80;99.90;;;;;;1913509;75;20580;-88
2021/07/24 03:10:28;;;;;;;;;;;24.90;99.90;;;;;;1910778;74;20255;-88
2021/07/24 03:13:01;;;;;;;;;;;24.80;99.90;;;;;;1916198;74;20189;-89
2021/07/24 03:15:35;;;;;;;;;;;24.80;99.90;;;;;;1915881;74;20239;-86
2021/07/24 03:18:02;;;;;;;;;;;24.80;99.90;;;;;;1867525;75;20183;-91
2021/07/24 03:21:16;;;;;;;;;;;24.80;99.90;;;;;;1842815;75;20190;-91
2021/07/24 03:23:44;;;;;;;;;;;24.90;99.90;;;;;;1912949;73;20188;-88
2021/07/24 03:26:30;;;;;;;;;;;24.90;99.90;;;;;;1832576;77;20213;-90
2021/07/24 03:28:59;;;;;;;;;;;24.90;99.90;;;;;;1834471;77;20496;-88
2021/07/24 03:31:30;;;;;;;;;;;25.00;99.90;;;;;;1830337;77;20251;-89
2021/07/24 03:34:09;;;;;;;;;;;25.00;99.90;;;;;;1835194;77;20263;-86
2021/07/24 03:36:41;;;;;;;;;;;25.10;99.90;;;;;;1829478;75;20182;-87
2021/07/24 03:39:11;;;;;;;;;;;25.00;99.90;;;;;;1834977;72;20179;-91
2021/07/24 03:41:41;;;;;;;;;;;25.10;99.90;;;;;;1836366;77;20329;-88
2021/07/24 03:44:11;;;;;;;;;;;25.10;99.90;;;;;;1839563;77;20130;-89
2021/07/24 03:46:46;;;;;;;;;;;25.10;99.90;;;;;;1830031;77;20233;-88
2021/07/24 03:49:19;;;;;;;;;;;25.10;99.90;;;;;;1835942;77;20191;-88
2021/07/24 03:51:49;;;;;;;;;;;25.10;99.90;;;;;;1831498;77;20156;-90
2021/07/24 03:54:23;;;;;;;;;;;25.20;99.90;;;;;;1829509;77;20242;-92
2021/07/24 03:56:52;;;;;;;;;;;25.20;99.90;;;;;;1828540;77;20299;-89
2021/07/24 03:59:22;;;;;;;;;;;25.20;99.90;;;;;;1821191;77;20251;-91
2021/07/24 04:01:54;;;;;;;;;;;25.20;99.90;;;;;;1829033;76;20241;-91
2021/07/24 04:04:23;;;;;;;;;;;25.20;99.90;;;;;;1821521;76;20271;-90
2021/07/24 04:06:53;;;;;;;;;;;25.20;99.90;;;;;;1840920;77;20238;-89
2021/07/24 04:09:23;;;;;;;;;;;25.20;99.90;;;;;;1848504;77;20340;-88
2021/07/24 04:11:53;;;;;;;;;;;25.20;99.90;;;;;;1845671;76;20224;-88
2021/07/24 04:14:22;;;;;;;;;;;25.20;99.90;;;;;;1841394;77;20195;-86
2021/07/24 04:17:03;;;;;;;;;;;25.20;99.90;;;;;;1844624;77;20185;-88
2021/07/24 04:19:32;;;;;;;;;;;25.20;99.90;;;;;;1842153;76;20202;-89
2021/07/24 04:22:02;;;;;;;;;;;25.30;99.90;;;;;;1857776;76;20244;-90
2021/07/24 04:24:33;;;;;;;;;;;25.30;99.90;;;;;;1839426;76;20209;-90
2021/07/24 04:27:03;;;;;;;;;;;25.30;99.90;;;;;;1866511;75;20190;-89
2021/07/24 04:29:33;;;;;;;;;;;25.30;99.90;;;;;;1840104;77;20163;-91
2021/07/24 04:32:04;;;;;;;;;;;25.30;99.90;;;;;;1880385;75;20188;-91
2021/07/24 04:34:34;;;;;;;;;;;25.30;99.90;;;;;;1921307;74;20192;-89
2021/07/24 04:37:04;;;;;;;;;;;25.30;99.90;;;;;;1921160;74;20170;-88
2021/07/24 04:39:34;;;;;;;;;;;25.30;99.90;;;;;;1923312;73;20171;-89
2021/07/24 04:42:03;;;;;;;;;;;25.30;99.90;;;;;;1921724;74;20225;-90
2021/07/24 04:44:33;;;;;;;;;;;25.40;99.90;;;;;;1921953;74;20178;-90
2021/07/24 04:47:03;;;;;;;;;;;25.40;99.90;;;;;;1918679;74;20246;-88
2021/07/24 04:49:33;;;;;;;;;;;25.40;99.90;;;;;;1918949;73;20125;-90
2021/07/24 04:52:10;;;;;;;;;;;25.40;99.90;;;;;;1921711;74;20180;-90
2021/07/24 04:54:44;;;;;;;;;;;25.50;99.90;;;;;;1894447;74;20220;-90
2021/07/24 04:57:15;;;;;;;;;;;25.50;99.90;;;;;;1924496;74;20208;-90
2021/07/24 04:59:48;;;;;;;;;;;25.50;99.90;;;;;;1926255;73;20226;-91
2021/07/24 05:02:17;;;;;;;;;;;25.50;99.90;;;;;;1923713;73;20191;-89
2021/07/24 05:04:47;;;;;;;;;;;25.50;99.90;;;;;;1897335;74;20255;-89
2021/07/24 05:07:18;;;;;;;;;;;25.50;99.90;;;;;;1880885;76;20164;-89
2021/07/24 05:09:49;;;;;;;;;;;25.40;99.90;;;;;;1876613;75;20462;-88
2021/07/24 05:12:19;;;;;;;;;;;25.50;99.90;;;;;;1878040;76;20899;-89
2021/07/24 05:14:55;;;;;;;;;;;25.50;99.90;;;;;;1894756;75;20208;-90
2021/07/24 05:17:25;;;;;;;;;;;25.60;99.90;;;;;;1892654;75;20197;-88
2021/07/24 05:19:54;;;;;;;;;;;25.70;99.90;;;;;;1928800;73;20175;-88
2021/07/24 05:22:24;;;;;;;;;;;25.70;99.90;;;;;;1931686;73;20172;-90
2021/07/24 05:24:54;;;;;;;;;;;25.80;99.90;;;;;;1935434;73;20502;-89
2021/07/24 05:27:24;;;;;;;;;;;25.80;99.90;;;;;;1930058;73;20164;-90
2021/07/24 05:29:55;;;;;;;;;;;25.90;99.90;;;;;;1940213;73;20477;-89
2021/07/24 05:32:25;;;;;;;;;;;26.00;99.90;;;;;;1938240;73;20151;-91
2021/07/24 05:35:02;;;;;;;;;;;26.00;99.90;;;;;;1930779;73;20207;-91
2021/07/24 05:37:34;;;;;;;;;;;26.00;99.90;;;;;;1941273;73;20186;-87
2021/07/24 05:40:05;;;;;;;;;;;26.00;99.90;;;;;;1933160;73;20179;-90
2021/07/24 05:42:35;;;;;;;;;;;26.00;99.90;;;;;;1928557;73;20112;-89
2021/07/24 05:45:05;;;;;;;;;;;26.10;99.90;;;;;;1935069;73;20429;-87
2021/07/24 05:47:35;;;;;;;;;;;26.10;99.90;;;;;;1929559;73;20163;-92
2021/07/24 05:50:05;;;;;;;;;;;26.10;99.90;;;;;;1927574;73;20153;-88
2021/07/24 05:52:34;;;;;;;;;;;26.10;99.90;;;;;;1931999;73;20284;-91
2021/07/24 05:55:04;;;;;;;;;;;26.10;99.90;;;;;;1940483;73;20196;-90
2021/07/24 05:57:37;;;;;;;;;;;26.10;99.90;;;;;;1936765;73;20175;-89
2021/07/24 06:00:08;;;;;;;;;;;26.20;99.90;;;;;;1935050;73;20205;-89
2021/07/24 06:02:38;;;;;;;;;;;26.20;99.90;;;;;;1931560;73;20263;-91
2021/07/24 06:05:11;;;;;;;;;;;26.20;99.90;;;;;;1927141;72;20156;-90
2021/07/24 06:07:39;;;;;;;;;;;26.20;99.90;;;;;;1922966;72;20169;-91
2021/07/24 06:10:08;;;;;;;;;;;26.20;99.90;;;;;;1922516;73;20203;-87
2021/07/24 06:12:38;;;;;;;;;;;26.20;99.90;;;;;;1925101;73;20253;-88
2021/07/24 06:15:09;;;;;;;;;;;26.20;99.90;;;;;;1921342;73;20225;-89
2021/07/24 06:17:40;;;;;;;;;;;26.20;99.90;;;;;;1855712;77;20240;-90
2021/07/24 06:20:10;;;;;;;;;;;26.20;99.90;;;;;;1852365;76;20237;-89
2021/07/24 06:22:42;;;;;;;;;;;26.20;99.90;;;;;;1851371;76;20199;-91
2021/07/24 06:25:32;;;;;;;;;;;26.20;99.90;;;;;;1850475;76;20206;-89
2021/07/24 06:28:00;;;;;;;;;;;26.10;99.90;;;;;;1849774;76;20131;-88
2021/07/24 06:30:30;;;;;;;;;;;26.10;99.90;;;;;;1852026;76;20603;-90
2021/07/24 06:33:42;;;;;;;;;;;26.10;99.90;;;;;;1820982;77;20182;-91
2021/07/24 06:35:59;;;;;;;;;;;26.10;99.90;;;;;;1812040;77;20186;-91
2021/07/24 06:38:35;;;;;;;;;;;26.10;99.90;;;;;;1783856;79;20289;-89
2021/07/24 06:41:26;;;;;;;;;;;26.10;99.90;;;;;;1786611;77;20279;-90
2021/07/24 06:44:02;;;;;;;;;;;26.10;99.90;;;;;;1810726;77;20139;-88
2021/07/24 06:46:37;;;;;;;;;;;26.20;99.90;;;;;;1816021;77;20154;-90
2021/07/24 06:49:10;;;;;;;;;;;26.10;99.90;;;;;;1811326;77;20199;-87
2021/07/24 06:51:48;;;;;;;;;;;26.10;99.90;;;;;;1798191;78;20214;-87
2021/07/24 06:54:34;;;;;;;;;;;26.20;99.90;;;;;;1813434;77;20570;-87
2021/07/24 06:57:01;;;;;;;;;;;26.10;99.90;;;;;;1808827;77;20229;-89
2021/07/24 06:59:31;;;;;;;;;;;26.20;99.90;;;;;;1781701;76;20107;-87
2021/07/24 07:02:00;;;;;;;;;;;26.20;99.90;;;;;;1810415;75;20100;-87
2021/07/24 07:04:30;;;;;;;;;;;26.10;99.90;;;;;;1798585;76;20127;-86
2021/07/24 07:07:00;;;;;;;;;;;26.10;99.90;;;;;;1796088;76;20216;-86
2021/07/24 07:09:29;;;;;;;;;;;26.10;99.90;;;;;;1818975;74;20271;-86
2021/07/24 07:11:59;;;;;;;;;;;26.10;99.90;;;;;;1807896;75;20200;-87
2021/07/24 07:14:40;;;;;;;;;;;26.20;99.90;;;;;;1812195;76;20274;-89
2021/07/24 07:17:06;;;;;;;;;;;26.20;99.90;;;;;;1758627;78;20168;-87
2021/07/24 07:20:17;;;;;;;;;;;;;;;;;;;;;
2021/07/24 07:26:15;;;;;;;;;;;26.20;99.90;;;;;;1711855;82;20556;-89
2021/07/24 07:29:01;;;;;;;;;;;;;;;;;;;;;
2021/07/24 07:31:56;;;;;;;;;;;26.20;99.90;;;;;;1662930;82;20177;-90
2021/07/24 07:37:17;;;;;;;;;;;26.10;99.90;;;;;;1646360;86;20254;-90
2021/07/24 07:39:35;;;;;;;;;;;26.10;99.90;;;;;;1685936;82;20241;-89
2021/07/24 07:39:54;;;;;;;;;;;26.00;99.90;;;;;;1660049;82;20337;-91
2021/07/24 07:42:32;;;;;;;;;;;26.00;99.90;;;;;;1736478;81;20599;-90
2021/07/24 07:45:07;;;;;;;;;;;26.00;99.90;;;;;;1718166;81;20498;-90
2021/07/24 07:47:49;;;;;;;;;;;25.90;99.90;;;;;;1735613;82;20142;-90
2021/07/24 07:50:23;;;;;;;;;;;25.90;99.90;;;;;;1732296;81;20240;-89
2021/07/24 07:53:05;;;;;;;;;;;25.90;99.90;;;;;;1732243;82;20252;-91
2021/07/24 07:55:41;;;;;;;;;;;25.80;99.90;;;;;;1694485;82;20290;-89
2021/07/24 07:58:25;;;;;;;;;;;25.90;99.90;;;;;;1733473;82;20217;-89
2021/07/24 08:00:55;;;;;;;;;;;25.90;99.90;;;;;;1733865;81;20232;-89
2021/07/24 08:03:28;;;;;;;;;;;25.90;99.90;;;;;;1742630;80;20091;-90
2021/07/24 08:06:07;;;;;;;;;;;25.90;99.90;;;;;;1789585;78;20188;-90
2021/07/24 08:08:44;;;;;;;;;;;25.90;99.90;;;;;;1796814;80;20221;-91
2021/07/24 08:11:11;;;;;;;;;;;25.80;99.90;;;;;;1803872;78;20347;-89
2021/07/24 08:13:41;;;;;;;;;;;25.90;99.90;;;;;;1816270;78;20124;-89
2021/07/24 08:16:12;;;;;;;;;;;25.80;99.90;;;;;;1813983;78;20507;-90
2021/07/24 08:18:42;;;;;;;;;;;25.80;99.90;;;;;;1812747;78;20133;-90
2021/07/24 08:21:12;;;;;;;;;;;25.80;99.90;;;;;;1814157;78;20302;-91
2021/07/24 08:23:42;;;;;;;;;;;25.90;99.90;;;;;;1814670;78;20180;-90
2021/07/24 08:26:12;;;;;;;;;;;25.90;99.90;;;;;;1771643;80;20183;-88
2021/07/24 08:28:42;;;;;;;;;;;25.90;99.90;;;;;;1747036;81;20160;-86
2021/07/24 08:31:12;;;;;;;;;;;25.90;99.90;;;;;;1751414;81;20210;-87
2021/07/24 08:33:44;;;;;;;;;;;26.00;99.90;;;;;;1770474;79;20131;-91
2021/07/24 08:36:13;;;;;;;;;;;25.90;99.90;;;;;;1770898;80;20206;-87
2021/07/24 08:38:43;;;;;;;;;;;26.00;99.90;;;;;;1773363;80;20186;-90
2021/07/24 08:41:15;;;;;;;;;;;26.00;99.90;;;;;;1765040;81;20167;-89
2021/07/24 08:43:45;;;;;;;;;;;26.00;99.90;;;;;;1739206;81;20169;-87
2021/07/24 08:46:15;;;;;;;;;;;26.00;99.90;;;;;;1749388;81;20231;-90
2021/07/24 08:48:44;;;;;;;;;;;26.00;99.90;;;;;;1767268;80;20133;-91
2021/07/24 08:51:15;;;;;;;;;;;26.00;99.90;;;;;;1769120;80;20141;-90
2021/07/24 08:54:05;;;;;;;;;;;;;;;;;;;;;
2021/07/24 11:45:04;;;;;;;;;;;25.10;99.90;;;;;;1876132;73;20230;-91
2021/07/24 11:47:30;;;;;;;;;;;25.10;99.90;;;;;;1890896;74;20215;-90
2021/07/24 11:50:01;;;;;;;;;;;25.10;99.90;;;;;;1885497;75;20561;-93
2021/07/24 11:52:31;;;;;;;;;;;25.10;99.90;;;;;;1858493;76;20238;-90
2021/07/24 11:55:03;;;;;;;;;;;25.10;99.90;;;;;;1851809;76;20267;-90
2021/07/24 12:00:09;;;;;;;;;;;25.10;99.90;;;;;;1853129;73;20283;-92
2021/07/24 12:02:38;;;;;;;;;;;25.10;99.90;;;;;;1867786;75;20244;-93
2021/07/24 12:05:08;;;;;;;;;;;25.10;99.90;;;;;;1908282;74;20208;-91
2021/07/24 12:07:38;;;;;;;;;;;25.10;99.90;;;;;;1910890;74;20191;-91
2021/07/24 12:10:25;;;;;;;;;;;25.10;99.90;;;;;;1895275;74;20318;-90
2021/07/24 12:12:56;;;;;;;;;;;25.10;99.90;;;;;;1928654;74;20134;-92
2021/07/24 12:15:27;;;;;;;;;;;25.10;99.90;;;;;;1924463;74;20183;-91
2021/07/24 12:17:59;;;;;;;;;;;25.10;99.90;;;;;;1909944;74;20525;-90
2021/07/24 12:20:29;;;;;;;;;;;25.10;99.90;;;;;;1873799;75;20185;-90
2021/07/24 12:22:59;;;;;;;;;;;25.10;99.90;;;;;;1864273;75;20197;-89
2021/07/24 12:25:29;;;;;;;;;;;25.10;99.90;;;;;;1871112;75;20245;-89
2021/07/24 12:28:06;;;;;;;;;;;25.10;99.90;;;;;;1863678;75;20553;-91
2021/07/24 12:30:37;;;;;;;;;;;25.10;99.90;;;;;;1832361;76;20286;-90
2021/07/24 12:33:13;;;;;;;;;;;25.10;99.90;;;;;;1867374;75;20270;-91
2021/07/24 12:35:42;;;;;;;;;;;25.10;99.90;;;;;;1869183;75;20876;-91
2021/07/24 12:38:14;;;;;;;;;;;25.10;99.90;;;;;;1865747;75;20230;-91
2021/07/24 12:40:48;;;;;;;;;;;25.10;99.90;;;;;;1825411;77;20571;-90
2021/07/24 12:43:17;;;;;;;;;;;25.10;99.90;;;;;;1829558;77;20239;-90
2021/07/24 12:45:47;;;;;;;;;;;25.10;99.90;;;;;;1916042;74;20210;-90
2021/07/24 12:48:18;;;;;;;;;;;25.10;99.90;;;;;;1910864;74;20200;-89
2021/07/24 12:50:49;;;;;;;;;;;25.10;99.90;;;;;;1886258;75;20260;-90
2021/07/24 12:53:20;;;;;;;;;;;25.20;99.90;;;;;;1912432;74;20202;-90
2021/07/24 12:55:51;;;;;;;;;;;25.10;99.90;;;;;;1911156;73;20240;-89
2021/07/24 12:58:21;;;;;;;;;;;25.10;99.90;;;;;;1874752;75;20175;-91
2021/07/24 13:00:51;;;;;;;;;;;25.10;99.90;;;;;;1906986;74;20244;-91
2021/07/24 13:03:21;;;;;;;;;;;25.10;99.90;;;;;;1912456;74;20226;-90
2021/07/24 13:05:52;;;;;;;;;;;25.10;99.90;;;;;;1907198;74;20197;-92
2021/07/24 13:08:21;;;;;;;;;;;25.10;99.90;;;;;;1899616;74;20160;-91
2021/07/24 13:10:53;;;;;;;;;;;25.10;99.90;;;;;;1904685;74;20205;-93
2021/07/24 13:13:22;;;;;;;;;;;25.10;99.90;;;;;;1902473;74;20197;-94
2021/07/24 13:15:52;;;;;;;;;;;25.10;99.90;;;;;;1908994;74;20227;-88
2021/07/24 13:18:22;;;;;;;;;;;25.10;99.90;;;;;;1892161;74;20520;-91
2021/07/24 13:20:52;;;;;;;;;;;25.10;99.90;;;;;;1843987;76;20167;-91
2021/07/24 13:23:27;;;;;;;;;;;25.10;99.90;;;;;;1842159;76;20197;-89
2021/07/24 13:28:25;;;;;;;;;;;25.10;99.90;;;;;;1860353;75;20229;-92
2021/07/24 13:30:54;;;;;;;;;;;25.10;99.90;;;;;;1857650;75;20221;-91
2021/07/24 13:33:25;;;;;;;;;;;25.10;99.90;;;;;;1860510;76;20186;-91
2021/07/24 13:35:55;;;;;;;;;;;25.10;99.90;;;;;;1859933;76;20236;-91
2021/07/24 13:38:25;;;;;;;;;;;25.20;99.90;;;;;;1853309;76;20233;-90
2021/07/24 13:40:54;;;;;;;;;;;25.20;99.90;;;;;;1861461;76;20237;-91
2021/07/24 13:43:24;;;;;;;;;;;25.20;99.90;;;;;;1857719;76;20208;-91
2021/07/24 13:45:53;;;;;;;;;;;25.20;99.90;;;;;;1862002;76;20245;-92
2021/07/24 13:48:23;;;;;;;;;;;25.20;99.90;;;;;;1860802;76;20193;-91
2021/07/24 13:50:53;;;;;;;;;;;25.20;99.90;;;;;;1861743;76;20198;-89
2021/07/24 13:53:25;;;;;;;;;;;25.10;99.90;;;;;;1853152;76;20458;-91
2021/07/24 13:55:59;;;;;;;;;;;25.10;99.90;;;;;;1864951;76;20266;-90
2021/07/24 13:58:29;;;;;;;;;;;25.10;99.90;;;;;;1873006;76;20208;-92
2021/07/24 14:00:58;;;;;;;;;;;25.10;99.90;;;;;;1858255;75;20193;-90
2021/07/24 14:03:28;;;;;;;;;;;25.10;99.90;;;;;;1844822;76;20170;-91
2021/07/24 14:05:59;;;;;;;;;;;25.10;99.90;;;;;;1850015;76;20210;-89
2021/07/24 14:08:29;;;;;;;;;;;25.00;99.90;;;;;;1806659;79;20307;-90
2021/07/24 14:11:03;;;;;;;;;;;25.00;99.90;;;;;;1857076;76;20226;-89
2021/07/24 14:13:30;;;;;;;;;;;25.00;99.90;;;;;;1818896;77;20172;-90
2021/07/24 14:16:00;;;;;;;;;;;25.00;99.90;;;;;;1861019;75;20126;-89
2021/07/24 14:18:32;;;;;;;;;;;25.00;99.90;;;;;;1822761;77;20127;-90
2021/07/24 14:21:02;;;;;;;;;;;25.00;99.90;;;;;;1880970;75;20533;-91
2021/07/24 14:23:32;;;;;;;;;;;24.90;99.90;;;;;;1862922;76;20188;-90
2021/07/24 14:26:03;;;;;;;;;;;25.00;99.90;;;;;;1857401;76;20190;-89
2021/07/24 14:28:33;;;;;;;;;;;24.90;99.90;;;;;;1847368;76;20238;-90
2021/07/24 14:31:04;;;;;;;;;;;24.90;99.90;;;;;;1854183;76;20207;-90
2021/07/24 14:33:37;;;;;;;;;;;24.90;99.90;;;;;;1850469;76;20364;-91
2021/07/24 14:36:09;;;;;;;;;;;24.90;99.90;;;;;;1872627;76;20214;-90
2021/07/24 14:38:40;;;;;;;;;;;24.90;99.90;;;;;;1856415;76;20471;-90
2021/07/24 14:41:13;;;;;;;;;;;24.90;99.90;;;;;;1840527;76;20181;-91
2021/07/24 14:43:43;;;;;;;;;;;24.80;99.90;;;;;;1853173;76;20208;-89
2021/07/24 14:46:14;;;;;;;;;;;24.90;99.90;;;;;;1832818;76;20214;-91
2021/07/24 14:48:44;;;;;;;;;;;24.80;99.90;;;;;;1821264;76;20205;-91
2021/07/24 14:51:18;;;;;;;;;;;24.80;99.90;;;;;;1828226;76;20777;-92
2021/07/24 14:53:50;;;;;;;;;;;24.90;99.90;;;;;;1843611;75;20155;-91
2021/07/24 14:56:19;;;;;;;;;;;24.80;99.90;;;;;;1842655;76;20201;-90
2021/07/24 14:58:51;;;;;;;;;;;24.80;99.90;;;;;;1845129;76;20204;-91
2021/07/24 15:01:23;;;;;;;;;;;24.80;99.90;;;;;;1828521;76;20216;-91
2021/07/24 15:03:53;;;;;;;;;;;24.80;99.90;;;;;;1831409;77;20127;-89
2021/07/24 15:06:23;;;;;;;;;;;24.80;99.90;;;;;;1843644;77;20233;-89
2021/07/24 15:08:56;;;;;;;;;;;24.80;99.90;;;;;;1825312;77;20178;-89
2021/07/24 15:11:26;;;;;;;;;;;24.80;99.90;;;;;;1821236;77;20171;-88
2021/07/24 15:13:55;;;;;;;;;;;24.80;99.90;;;;;;1843721;77;20175;-89
2021/07/24 15:16:25;;;;;;;;;;;24.80;99.90;;;;;;1830660;77;20178;-88
2021/07/24 15:18:54;;;;;;;;;;;24.80;99.90;;;;;;1833337;77;20175;-88
2021/07/24 15:21:24;;;;;;;;;;;24.80;99.90;;;;;;1841687;77;20494;-88
2021/07/24 15:23:54;;;;;;;;;;;24.80;99.90;;;;;;1847228;77;20196;-90
2021/07/24 15:26:23;;;;;;;;;;;24.70;99.90;;;;;;1828673;77;20214;-89
2021/07/24 15:28:53;;;;;;;;;;;24.80;99.90;;;;;;1843735;77;20117;-90
2021/07/24 15:31:40;;;;;;;;;;;24.80;99.90;;;;;;1842007;77;20180;-91
2021/07/24 15:34:10;;;;;;;;;;;24.70;99.90;;;;;;1829378;77;20140;-92
2021/07/24 15:36:40;;;;;;;;;;;24.70;99.90;;;;;;1839968;77;20521;-90
2021/07/24 15:39:09;;;;;;;;;;;24.70;99.90;;;;;;1834435;77;20162;-90
2021/07/24 15:41:39;;;;;;;;;;;24.70;99.90;;;;;;1830305;77;20289;-92
2021/07/24 15:44:09;;;;;;;;;;;24.70;99.90;;;;;;1836002;77;20183;-92
2021/07/24 15:46:39;;;;;;;;;;;24.70;99.90;;;;;;1843225;77;20190;-91
2021/07/24 15:49:09;;;;;;;;;;;24.70;99.90;;;;;;1851197;76;20501;-91
2021/07/24 15:51:39;;;;;;;;;;;24.70;99.90;;;;;;1830885;77;20191;-91
2021/07/24 15:54:09;;;;;;;;;;;24.60;99.90;;;;;;1846525;76;20198;-90
2021/07/24 15:56:38;;;;;;;;;;;24.70;99.90;;;;;;1849947;76;20182;-91
2021/07/24 15:59:08;;;;;;;;;;;24.70;99.90;;;;;;1858982;77;20197;-91
2021/07/24 16:01:40;;;;;;;;;;;24.60;99.90;;;;;;1860956;76;20232;-91
2021/07/24 16:04:10;;;;;;;;;;;24.70;99.90;;;;;;1879969;75;20254;-92
2021/07/24 16:06:40;;;;;;;;;;;24.70;99.90;;;;;;1878280;75;20133;-92
2021/07/24 16:09:16;;;;;;;;;;;24.70;99.90;;;;;;1878628;75;20185;-91
2021/07/24 16:12:04;;;;;;;;;;;24.70;99.90;;;;;;1882994;75;20130;-91
2021/07/24 16:14:35;;;;;;;;;;;24.70;99.90;;;;;;1872131;75;20216;-91
2021/07/24 16:17:05;;;;;;;;;;;24.70;99.90;;;;;;1873748;75;20496;-91
2021/07/24 16:19:38;;;;;;;;;;;24.70;99.90;;;;;;1872290;75;20168;-92
2021/07/24 16:22:11;;;;;;;;;;;24.60;99.90;;;;;;1846226;75;20183;-91
2021/07/24 16:24:41;;;;;;;;;;;24.60;99.90;;;;;;1889532;75;20119;-91
2021/07/24 16:27:10;;;;;;;;;;;24.60;99.90;;;;;;1871106;75;20410;-92
2021/07/24 16:29:40;;;;;;;;;;;24.60;99.90;;;;;;1869800;75;20213;-91
2021/07/24 16:32:10;;;;;;;;;;;24.60;99.90;;;;;;1872013;75;20219;-90
2021/07/24 16:34:39;;;;;;;;;;;24.60;99.90;;;;;;1879111;75;20552;-93
2021/07/24 16:37:09;;;;;;;;;;;24.60;99.90;;;;;;1876181;74;20136;-91
2021/07/24 16:39:39;;;;;;;;;;;24.60;99.90;;;;;;1871015;75;20243;-90
2021/07/24 16:42:11;;;;;;;;;;;24.60;99.90;;;;;;1879362;75;20278;-91
2021/07/24 16:44:41;;;;;;;;;;;24.60;99.90;;;;;;1863076;76;20238;-91
2021/07/24 16:47:14;;;;;;;;;;;24.60;99.90;;;;;;1865129;75;20214;-92
2021/07/24 16:49:45;;;;;;;;;;;24.60;99.90;;;;;;1885035;75;20242;-90
2021/07/24 16:52:15;;;;;;;;;;;24.60;99.90;;;;;;1885695;75;20190;-91
2021/07/24 16:54:46;;;;;;;;;;;24.60;99.90;;;;;;1880844;75;20201;-92
2021/07/24 16:57:16;;;;;;;;;;;24.60;99.90;;;;;;1884977;75;20221;-91
2021/07/24 16:59:45;;;;;;;;;;;24.60;99.90;;;;;;1890298;75;20171;-91
2021/07/24 17:02:15;;;;;;;;;;;24.60;99.90;;;;;;1875473;75;20240;-91
2021/07/24 17:04:47;;;;;;;;;;;24.60;99.90;;;;;;1905174;74;20581;-92
2021/07/24 17:07:17;;;;;;;;;;;24.60;99.90;;;;;;1897443;74;20183;-90
2021/07/24 17:09:46;;;;;;;;;;;24.60;99.90;;;;;;1899086;74;20254;-91
2021/07/24 17:12:16;;;;;;;;;;;24.60;99.90;;;;;;1895497;74;20862;-90
2021/07/24 17:14:46;;;;;;;;;;;24.60;99.90;;;;;;1893954;74;20247;-91
2021/07/24 17:17:16;;;;;;;;;;;24.60;99.90;;;;;;1895533;74;20352;-91
2021/07/24 17:19:46;;;;;;;;;;;24.60;99.90;;;;;;1893413;74;20231;-91
2021/07/24 17:22:17;;;;;;;;;;;24.60;99.90;;;;;;1893360;74;20127;-91
2021/07/24 17:24:49;;;;;;;;;;;24.60;99.90;;;;;;1862740;74;20237;-90
2021/07/24 17:27:19;;;;;;;;;;;24.60;99.90;;;;;;1895402;74;20265;-91
2021/07/24 17:29:49;;;;;;;;;;;24.60;99.90;;;;;;1902329;74;20261;-91
2021/07/24 17:32:23;;;;;;;;;;;24.60;99.90;;;;;;1891573;74;20195;-91
2021/07/24 17:34:53;;;;;;;;;;;24.60;99.90;;;;;;1899740;74;20219;-91
2021/07/24 17:37:24;;;;;;;;;;;24.60;99.90;;;;;;1885479;76;20164;-91
2021/07/24 17:39:56;;;;;;;;;;;24.60;99.90;;;;;;1890558;74;20210;-90
2021/07/24 17:42:27;;;;;;;;;;;24.60;99.90;;;;;;1893851;74;20209;-90
2021/07/24 17:44:57;;;;;;;;;;;24.60;99.90;;;;;;1898640;74;20257;-91
2021/07/24 17:47:26;;;;;;;;;;;24.60;99.90;;;;;;1897075;74;20210;-91